Terminal Aerodrome Forecast
Issued by NWS

Home | Current Version | Previous Version | Text Only | Print | Product List | Glossary On
Versions: 1 2 3 4 5 6 7 8 9 10 11 12 13
000
FTAK31 PANC 301738
TAFAVD
TAF
PAVD 301738Z 3018/0118 VRB03KT P6SM VCSH SCT040 BKN060
      TEMPO 3021/3024 P6SM -RA SCT025 OVC035
     FM010000 VRB04KT P6SM -RA SCT025 OVC035
     FM010600 VRB03KT 6SM -RA BKN015 OVC025
      AMD LTD TO CLD VIS AND WIND=

USA.gov is the U.S. government's official web portal to all federal, state and local government web resources and services.